createdAt,value
2023-09-23T00:02:44.836Z,23.5
2023-09-23T00:05:45.438Z,23.46
2023-09-23T00:08:41.711Z,23.37
2023-09-23T00:11:38.384Z,23.42
2023-09-23T00:14:33.799Z,23.41
2023-09-23T00:17:29.409Z,23.37
2023-09-23T00:20:27.908Z,23.42
2023-09-23T00:23:28.475Z,23.44
2023-09-23T00:26:27.003Z,23.43
2023-09-23T00:29:27.565Z,23.33
2023-09-23T00:32:24.145Z,23.4
2023-09-23T00:35:22.678Z,23.34
2023-09-23T00:38:23.240Z,23.43
2023-09-23T00:41:19.865Z,23.46
2023-09-23T00:44:17.416Z,23.43
2023-09-23T00:47:15.977Z,23.4
2023-09-23T00:50:18.600Z,23.41
2023-09-23T00:53:15.114Z,23.32
2023-09-23T00:56:17.617Z,23.39
2023-09-23T00:59:18.203Z,23.43
2023-09-23T01:02:14.798Z,23.32
2023-09-23T01:05:10.232Z,23.15
2023-09-23T01:08:19.812Z,23.22
2023-09-23T01:11:18.373Z,23.21
2023-09-23T01:14:15.980Z,23.26
2023-09-23T01:17:15.478Z,23.25
2023-09-23T01:20:15.053Z,23.22
2023-09-23T01:23:11.536Z,23.23
2023-09-23T01:26:13.297Z,23.29
2023-09-23T01:29:08.698Z,23.26
2023-09-23T01:32:14.240Z,23.26
2023-09-23T01:35:09.775Z,23.29
2023-09-23T01:38:08.315Z,23.2
2023-09-23T01:41:05.881Z,22.97
2023-09-23T01:44:02.484Z,23.08
2023-09-23T01:46:59.087Z,23.19
2023-09-23T01:49:54.606Z,23.22
2023-09-23T01:52:50.140Z,23.25
2023-09-23T01:55:47.682Z,23.26
2023-09-23T01:58:46.154Z,23.24
2023-09-23T02:01:41.867Z,23.21
2023-09-23T02:04:41.466Z,23.13
2023-09-23T02:07:39.910Z,23.12
2023-09-23T02:10:36.434Z,23.07
2023-09-23T02:13:36.987Z,23.03
2023-09-23T02:16:34.679Z,23
2023-09-23T02:19:30.108Z,22.97
2023-09-23T02:22:25.671Z,23.06
2023-09-23T02:25:26.551Z,23
2023-09-23T02:28:21.826Z,23.01
2023-09-23T02:31:17.395Z,23.04
2023-09-23T02:34:12.894Z,23.06
2023-09-23T02:37:09.484Z,23.06
2023-09-23T02:40:07.028Z,23.06
2023-09-23T02:43:05.584Z,23.09
2023-09-23T02:46:01.197Z,22.83
2023-09-23T02:48:57.721Z,22.72
2023-09-23T02:51:53.262Z,22.71
2023-09-23T02:54:52.823Z,22.34
2023-09-23T02:57:50.379Z,21.92
2023-09-23T03:00:57.916Z,21.83
2023-09-23T03:07:02.998Z,21.95
2023-09-23T03:10:01.611Z,21.85
2023-09-23T03:13:06.133Z,21.93
2023-09-23T03:16:11.652Z,21.65
2023-09-23T03:19:11.196Z,21.45
2023-09-23T03:22:08.723Z,21.32
2023-09-23T03:25:05.301Z,21.71
2023-09-23T03:28:00.854Z,21.9
2023-09-23T03:30:59.377Z,21.76
2023-09-23T03:33:57.029Z,21.56
2023-09-23T03:36:53.548Z,21.51
2023-09-23T03:39:50.070Z,21.5
2023-09-23T03:42:48.652Z,21.52
2023-09-23T03:45:44.269Z,21.55
2023-09-23T03:48:39.737Z,21.44
2023-09-23T03:51:38.317Z,21.5
2023-09-23T03:54:33.830Z,21.62
2023-09-23T03:57:29.490Z,21.73
2023-09-23T04:00:27.986Z,21.95
2023-09-23T04:03:23.600Z,21.81
2023-09-23T04:06:25.094Z,21.9
2023-09-23T04:09:21.669Z,21.92
2023-09-23T04:12:19.297Z,22.19
2023-09-23T04:15:15.773Z,22.22
2023-09-23T04:18:12.352Z,22.29
2023-09-23T04:21:09.951Z,22.34
2023-09-23T04:24:07.453Z,22.38
2023-09-23T04:27:03.013Z,22.39
2023-09-23T04:30:02.661Z,22.37
2023-09-23T04:33:01.232Z,22.36
2023-09-23T04:35:57.648Z,22.38
2023-09-23T04:38:53.253Z,22.41
2023-09-23T04:41:48.781Z,22.51
2023-09-23T04:44:45.580Z,22.58
2023-09-23T04:47:40.945Z,22.44
2023-09-23T04:50:40.466Z,22.28
2023-09-23T04:53:36.999Z,22.36
2023-09-23T04:56:41.562Z,22.49
2023-09-23T04:59:38.120Z,22.58
2023-09-23T05:02:33.931Z,22.62
2023-09-23T05:05:29.352Z,22.68
2023-09-23T05:08:25.876Z,22.72
2023-09-23T05:11:22.656Z,22.53
2023-09-23T05:14:18.042Z,22.32
2023-09-23T05:17:16.488Z,22.44
2023-09-23T05:20:15.039Z,22.4
2023-09-23T05:23:11.653Z,22.48
2023-09-23T05:26:09.209Z,22.12
2023-09-23T05:29:04.757Z,21.88
2023-09-23T05:32:02.329Z,21.7
2023-09-23T05:35:01.844Z,21.69
2023-09-23T05:37:57.425Z,21.79
2023-09-23T05:40:57.999Z,21.76
2023-09-23T05:43:54.496Z,21.71
2023-09-23T05:46:51.084Z,21.88
2023-09-23T05:49:47.885Z,21.98
2023-09-23T05:52:46.206Z,22.11
2023-09-23T05:55:41.716Z,22.34
2023-09-23T05:58:37.283Z,22.56
2023-09-23T06:01:34.881Z,22.78
2023-09-23T06:04:31.468Z,22.84
2023-09-23T06:07:27.982Z,22.95
2023-09-23T06:10:23.608Z,23.15
2023-09-23T06:13:19.088Z,23.33
2023-09-23T06:16:17.729Z,23.56
2023-09-23T06:19:14.233Z,23.6
2023-09-23T06:22:09.809Z,23.26
2023-09-23T06:25:07.397Z,23.53
2023-09-23T06:28:04.901Z,23.22
2023-09-23T06:31:00.464Z,22.96
2023-09-23T06:33:55.968Z,22.85
2023-09-23T06:36:51.565Z,22.85
2023-09-23T06:39:47.141Z,23.13
2023-09-23T06:42:45.697Z,23.2
2023-09-23T06:45:42.243Z,23.47
2023-09-23T06:48:38.804Z,23.5
2023-09-23T06:51:35.334Z,23.69
2023-09-23T06:54:30.936Z,23.8
2023-09-23T06:57:26.469Z,23.47
2023-09-23T07:00:23.019Z,23.46
2023-09-23T07:03:18.819Z,23.01
2023-09-23T07:06:15.165Z,22.76
2023-09-23T07:09:11.749Z,22.75
2023-09-23T07:12:07.330Z,22.56
2023-09-23T07:15:03.850Z,22.47
2023-09-23T07:18:00.401Z,22.62
2023-09-23T07:20:56.960Z,22.93
2023-09-23T07:23:52.527Z,23.04
2023-09-23T07:26:55.068Z,23.09
2023-09-23T07:29:51.638Z,23.42
2023-09-23T07:32:47.206Z,23.47
2023-09-23T07:35:43.776Z,23.58
2023-09-23T07:38:40.291Z,23.49
2023-09-23T07:41:36.864Z,23.48
2023-09-23T07:44:32.476Z,23.61
2023-09-23T07:47:28.082Z,23.48
2023-09-23T07:50:24.647Z,23.59
2023-09-23T07:53:20.169Z,23.72
2023-09-23T07:56:16.718Z,23.89
2023-09-23T07:59:12.280Z,23.97
2023-09-23T08:02:07.867Z,24.06
2023-09-23T08:05:05.511Z,24.22
2023-09-23T08:08:00.958Z,24.45
2023-09-23T08:10:56.532Z,24.68
2023-09-23T08:13:53.069Z,25.04
2023-09-23T08:16:49.607Z,24.85
2023-09-23T08:19:46.143Z,24.82
2023-09-23T08:22:41.745Z,24.66
2023-09-23T08:25:37.341Z,25.2
2023-09-23T08:28:35.852Z,24.8
2023-09-23T08:31:32.433Z,25.21
2023-09-23T08:34:28.934Z,25.28
2023-09-23T08:37:24.503Z,25
2023-09-23T08:40:22.079Z,24.74
2023-09-23T08:43:36.549Z,24.87
2023-09-23T08:46:33.144Z,24.92
2023-09-23T08:49:29.747Z,25.44
2023-09-23T08:52:28.269Z,25.67
2023-09-23T08:55:25.834Z,25.71
2023-09-23T08:58:22.401Z,26.32
2023-09-23T09:01:22.025Z,26.62
2023-09-23T09:04:18.476Z,26.52
2023-09-23T09:07:24.022Z,27.26
2023-09-23T09:10:19.677Z,27.56
2023-09-23T09:13:18.135Z,27.4
2023-09-23T09:16:14.704Z,27.64
2023-09-23T09:19:11.258Z,27.87
2023-09-23T09:22:08.807Z,27.6
2023-09-23T09:25:08.388Z,27.25
2023-09-23T09:28:04.940Z,27.25
2023-09-23T09:31:02.570Z,27.61
2023-09-23T09:34:00.988Z,28.35
2023-09-23T09:36:58.602Z,28.42
2023-09-23T09:39:59.158Z,28.63
2023-09-23T09:46:11.448Z,28.41
2023-09-23T09:49:10.741Z,29.13
2023-09-23T09:52:07.320Z,29.41
2023-09-23T09:55:06.905Z,29.44
2023-09-23T09:58:05.432Z,29.66
2023-09-23T10:01:03.050Z,30.22
2023-09-23T10:04:00.628Z,30.05
2023-09-23T10:06:57.120Z,29.47
2023-09-23T10:09:59.664Z,28.98
2023-09-23T10:13:04.167Z,29.7
2023-09-23T10:16:05.717Z,30.36
2023-09-23T10:19:11.329Z,29.87
2023-09-23T10:22:13.834Z,29.79
2023-09-23T10:25:12.377Z,29.98
2023-09-23T10:28:17.917Z,31.01
2023-09-23T10:31:16.471Z,31.65
2023-09-23T10:34:15.011Z,31.85
2023-09-23T10:37:13.572Z,31.91
2023-09-23T10:40:14.186Z,32.08
2023-09-23T10:43:10.665Z,32.15
2023-09-23T10:46:07.317Z,31.32
2023-09-23T10:49:05.775Z,31.46
2023-09-23T10:52:02.371Z,32.27
2023-09-23T10:54:58.917Z,32.48
2023-09-23T10:57:56.496Z,31.98
2023-09-23T11:00:54.036Z,32.35
2023-09-23T11:03:52.811Z,32.9
2023-09-23T11:06:49.185Z,33.09
2023-09-23T11:09:46.787Z,33.03
2023-09-23T11:12:46.303Z,33.28
2023-09-23T11:15:47.076Z,33.38
2023-09-23T11:18:44.369Z,33.35
2023-09-23T11:21:43.910Z,33.61
2023-09-23T11:24:40.558Z,33.78
2023-09-23T11:27:39.057Z,34.04
2023-09-23T11:30:37.582Z,34.52
2023-09-23T11:33:38.111Z,33.79
2023-09-23T11:36:34.727Z,33.2
2023-09-23T11:39:36.269Z,34.06
2023-09-23T11:42:34.774Z,33.77
2023-09-23T11:45:33.374Z,33.57
2023-09-23T11:48:29.947Z,34.11
2023-09-23T11:51:27.548Z,35.35
2023-09-23T11:54:23.036Z,34.96
2023-09-23T11:57:19.630Z,34.4
2023-09-23T12:00:18.559Z,33.46
2023-09-23T12:03:15.737Z,32.43
2023-09-23T12:06:13.261Z,32.47
2023-09-23T12:09:11.863Z,32.21
2023-09-23T12:12:10.383Z,31.8
2023-09-23T12:15:08.938Z,29.8
2023-09-23T12:18:05.526Z,29.23
2023-09-23T12:21:02.539Z,30.32
2023-09-23T12:23:59.612Z,30.91
2023-09-23T12:27:00.146Z,30.39
2023-09-23T12:29:56.675Z,29.37
2023-09-23T12:32:52.378Z,29.93
2023-09-23T12:35:47.903Z,30.28
2023-09-23T12:38:43.373Z,30.02
2023-09-23T12:41:43.936Z,29.6
2023-09-23T12:44:41.520Z,30.03
2023-09-23T12:47:54.989Z,29.69
2023-09-23T12:50:41.607Z,29.09
2023-09-23T12:53:38.190Z,28.13
2023-09-23T12:56:34.738Z,27.81
2023-09-23T12:59:32.288Z,27.41
2023-09-23T13:02:28.972Z,27.4
2023-09-23T13:05:24.433Z,26.98
2023-09-23T13:08:21.024Z,26.81
2023-09-23T13:11:17.517Z,26.59
2023-09-23T13:14:13.089Z,26.59
2023-09-23T13:17:09.657Z,26.7
2023-09-23T13:20:07.348Z,26.72
2023-09-23T13:23:04.079Z,26.44
2023-09-23T13:26:03.366Z,26.45
2023-09-23T13:28:58.898Z,26.5
2023-09-23T13:31:54.422Z,26.09
2023-09-23T13:34:50.054Z,26.06
2023-09-23T13:37:45.522Z,25.96
2023-09-23T13:40:43.117Z,25.87
2023-09-23T13:43:40.717Z,25.83
2023-09-23T13:46:37.291Z,25.72
2023-09-23T13:49:32.802Z,25.55
2023-09-23T13:52:30.330Z,25.44
2023-09-23T13:55:25.898Z,25.41
2023-09-23T13:58:21.409Z,25.46
2023-09-23T14:01:17.086Z,25.51
2023-09-23T14:04:13.638Z,25.51
2023-09-23T14:07:09.142Z,25.52
2023-09-23T14:10:18.676Z,25.13
2023-09-23T14:13:06.243Z,25.07
2023-09-23T14:16:02.960Z,24.95
2023-09-23T14:18:58.360Z,24.5
2023-09-23T14:21:55.949Z,24.29
2023-09-23T14:24:52.497Z,24.1
2023-09-23T14:27:49.020Z,23.96
2023-09-23T14:30:44.623Z,23.97
2023-09-23T14:33:42.180Z,23.95
2023-09-23T14:36:38.766Z,23.71
2023-09-23T14:39:36.276Z,23.05
2023-09-23T14:42:34.861Z,22.65
2023-09-23T14:45:31.447Z,22.35
2023-09-23T14:48:28.023Z,22.35
2023-09-23T14:51:24.518Z,21.83
2023-09-23T14:54:20.064Z,21.65
2023-09-23T14:57:16.627Z,21.97
2023-09-23T15:00:14.212Z,21.87
2023-09-23T15:03:10.857Z,21.52
2023-09-23T15:06:07.334Z,21.3
2023-09-23T15:09:03.339Z,20.99
2023-09-23T15:12:01.445Z,21.25
2023-09-23T15:14:57.026Z,20.79
2023-09-23T15:17:53.605Z,21.3
2023-09-23T15:20:50.126Z,21.11
2023-09-23T15:23:45.701Z,21.01
2023-09-23T15:26:42.235Z,21.13
2023-09-23T15:29:37.832Z,21.29
2023-09-23T15:32:35.419Z,21.05
2023-09-23T15:35:31.972Z,21.39
2023-09-23T15:38:27.495Z,21.79
2023-09-23T15:41:25.080Z,21.37
2023-09-23T15:44:20.635Z,20.6
2023-09-23T15:47:18.177Z,20.55
2023-09-23T15:50:15.742Z,21.11
2023-09-23T15:53:11.289Z,21.87
2023-09-23T15:56:08.875Z,21.1
2023-09-23T15:59:05.442Z,20.32
2023-09-23T16:02:01.132Z,19.99
2023-09-23T16:04:56.565Z,20.27
2023-09-23T16:07:52.054Z,19.93
2023-09-23T16:10:47.676Z,19.9
2023-09-23T16:13:43.212Z,20.13
2023-09-23T16:16:38.894Z,19.87
2023-09-23T16:19:35.312Z,19.52
2023-09-23T16:22:31.898Z,19.32
2023-09-23T16:25:27.485Z,19.11
2023-09-23T16:28:22.999Z,18.98
2023-09-23T16:31:18.647Z,19.24
2023-09-23T16:34:14.116Z,19.59
2023-09-23T16:37:09.660Z,19.78
2023-09-23T16:40:08.259Z,19.88
2023-09-23T16:43:04.780Z,20.01
2023-09-23T16:46:01.325Z,20.09
2023-09-23T16:48:58.915Z,19.81
2023-09-23T16:51:55.487Z,19.68
2023-09-23T16:54:51.033Z,20.04
2023-09-23T16:57:51.627Z,20.09
2023-09-23T17:00:49.174Z,20.08
2023-09-23T17:03:45.536Z,19.84
2023-09-23T17:06:42.247Z,19.83
2023-09-23T17:09:37.840Z,19.48
2023-09-23T17:12:34.490Z,19.62
2023-09-23T17:15:33.935Z,19.67
2023-09-23T17:18:30.504Z,19.49
2023-09-23T17:21:26.081Z,18.97
2023-09-23T17:24:21.628Z,18.84
2023-09-23T17:27:17.228Z,19.22
2023-09-23T17:30:12.734Z,18.9
2023-09-23T17:33:08.507Z,19.28
2023-09-23T17:36:05.884Z,19.25
2023-09-23T17:39:05.428Z,19.08
2023-09-23T17:42:02.968Z,18.66
2023-09-23T17:44:58.547Z,18.64
2023-09-23T17:47:54.258Z,18.76
2023-09-23T17:50:49.728Z,18.75
2023-09-23T17:53:47.343Z,18.83
2023-09-23T17:56:42.864Z,19.13
2023-09-23T17:59:39.365Z,19.03
2023-09-23T18:02:36.132Z,18.81
2023-09-23T18:05:33.581Z,18.97
2023-09-23T18:08:29.045Z,19.12
2023-09-23T18:11:29.599Z,18.97
2023-09-23T18:14:25.138Z,19
2023-09-23T18:17:21.091Z,18.96
2023-09-23T18:20:22.287Z,19.04
2023-09-23T18:26:24.436Z,19.17
2023-09-23T18:29:22.037Z,19.13
2023-09-23T18:32:22.472Z,19.23
2023-09-23T18:35:19.065Z,19.17
2023-09-23T18:38:16.633Z,19.25
2023-09-23T18:41:16.192Z,19.38
2023-09-23T18:44:12.842Z,19.46
2023-09-23T18:47:11.190Z,19.59
2023-09-23T18:50:07.808Z,19.54
2023-09-23T18:53:05.321Z,19.54
2023-09-23T18:56:02.879Z,19.49
2023-09-23T18:58:59.470Z,19.42
2023-09-23T19:01:56.012Z,19.31
2023-09-23T19:04:52.578Z,19.38
2023-09-23T19:07:49.129Z,19.55
2023-09-23T19:10:46.684Z,19.98
2023-09-23T19:13:43.247Z,19.97
2023-09-23T19:16:40.828Z,20.05
2023-09-23T19:19:38.383Z,20.02
2023-09-23T19:22:33.920Z,20.13
2023-09-23T19:25:35.520Z,20.85
2023-09-23T19:28:30.992Z,21.05
2023-09-23T19:31:29.616Z,20.65
2023-09-23T19:34:27.132Z,20.17
2023-09-23T19:37:28.766Z,20.28
2023-09-23T19:40:25.251Z,20.69
2023-09-23T19:43:23.774Z,20.61
2023-09-23T19:46:27.418Z,20.45
2023-09-23T19:49:24.971Z,20.49
2023-09-23T19:52:22.442Z,20.36
2023-09-23T19:55:20.118Z,20.34
2023-09-23T19:58:19.604Z,20.27
2023-09-23T20:01:18.186Z,20.6
2023-09-23T20:04:14.678Z,21.23
2023-09-23T20:07:12.257Z,21.37
2023-09-23T20:10:10.770Z,21.67
2023-09-23T20:13:11.379Z,21.83
2023-09-23T20:16:10.264Z,21.73
2023-09-23T20:19:05.478Z,21.69
2023-09-23T20:22:03.045Z,21.72
2023-09-23T20:25:02.577Z,21.77
2023-09-23T20:27:59.217Z,21.45
2023-09-23T20:30:59.716Z,21.78
2023-09-23T20:33:58.277Z,21.91
2023-09-23T20:36:59.793Z,21.56
2023-09-23T20:39:57.360Z,21.07
2023-09-23T20:42:57.108Z,21.15
2023-09-23T20:45:56.471Z,21.31
2023-09-23T20:48:54.023Z,21.46
2023-09-23T20:51:50.632Z,21.31
2023-09-23T20:54:47.202Z,21.36
2023-09-23T20:57:43.707Z,21.1
2023-09-23T21:00:46.318Z,20.97
2023-09-23T21:03:43.051Z,20.83
2023-09-23T21:06:42.045Z,20.75
2023-09-23T21:09:45.886Z,20.82
2023-09-23T21:12:42.513Z,20.78
2023-09-23T21:15:40.005Z,20.89
2023-09-23T21:18:38.692Z,21.05
2023-09-23T21:21:37.089Z,20.93
2023-09-23T21:24:33.632Z,20.91
2023-09-23T21:27:29.227Z,20.88
2023-09-23T21:30:24.786Z,21.04
2023-09-23T21:33:21.436Z,21
2023-09-23T21:36:17.883Z,21.05
2023-09-23T21:39:13.435Z,20.76
2023-09-23T21:42:11.027Z,20.67
2023-09-23T21:45:12.615Z,20.39
2023-09-23T21:48:08.302Z,19.92
2023-09-23T21:51:04.685Z,19.73
2023-09-23T21:54:02.255Z,19.85
2023-09-23T21:56:57.805Z,20.33
2023-09-23T21:59:56.386Z,20.66
2023-09-23T22:02:59.030Z,20.46
2023-09-23T22:05:56.502Z,20.7
2023-09-23T22:08:53.017Z,20.44
2023-09-23T22:11:51.652Z,20.65
2023-09-23T22:14:48.168Z,20.89
2023-09-23T22:17:46.790Z,21.1
2023-09-23T22:20:50.285Z,21.19
2023-09-23T22:23:49.061Z,21.08
2023-09-23T22:26:49.336Z,20.95
2023-09-23T22:29:45.919Z,20.95
2023-09-23T22:32:42.531Z,21.11
2023-09-23T22:35:40.051Z,21.26
2023-09-23T22:38:36.639Z,21.6
2023-09-23T22:41:32.398Z,21.22
2023-09-23T22:44:28.737Z,21.05
2023-09-23T22:47:24.299Z,21.44
2023-09-23T22:50:22.878Z,21.3
2023-09-23T22:53:18.440Z,21.57
2023-09-23T22:56:13.946Z,21.56
2023-09-23T22:59:11.491Z,21.55
2023-09-23T23:02:09.031Z,21.48
2023-09-23T23:05:05.694Z,21.18
2023-09-23T23:08:04.134Z,21.04
2023-09-23T23:11:00.712Z,21.15
2023-09-23T23:13:57.308Z,21.51
2023-09-23T23:16:53.867Z,21.79
2023-09-23T23:19:53.504Z,21.77
2023-09-23T23:22:50.006Z,21.6
2023-09-23T23:25:45.495Z,21.39
2023-09-23T23:28:41.091Z,21.24
2023-09-23T23:31:39.628Z,21.19
2023-09-23T23:34:38.168Z,21.29
2023-09-23T23:37:37.764Z,21.48
2023-09-23T23:40:33.370Z,21.27
2023-09-23T23:43:28.873Z,21.1
2023-09-23T23:46:31.456Z,21.23
2023-09-23T23:49:26.978Z,21.44
2023-09-23T23:52:24.541Z,21.49
2023-09-23T23:55:20.054Z,21.62
2023-09-23T23:58:17.648Z,21.8
